Accueil
METAR-TAF:

METAR-TAF

Aéroports :

Richmond, Virginie, États-Unis

latitude: 37-24-24N, longitude: 077-31-30W, altitude: 72 m

Observation

Le bulletin a été fait il y a 37 minutes, à 11:56 UTC
Vent 5 kt de nord
Température 9°C
Humidité 66%
Pression 1015 hPa
Visibilité: 16.1 km
Ciel clair

METAR: KFCI 041156Z AUTO 35005KT 10SM CLR 09/03 A2998 RMK AO2 SLP164 T00890033 10089 20022 53014

Heure: 08:33 (12:33 UTC)


TAF: absent

Observations et prévisions météorologiques de plus de 4000 aéroports (messages METAR et TAF).

Les stations disponibles sont représentées par des disques jaunes et rouges sur la carte.

Passer la souris dessus pour voir le nom de la station.

Cliquer dessus pour voir les observations et prévisions météorologiques.

Pour changer de carte: cliquez sur les boutons verts avec une croix noire pour zoomer, sur le bouton vert avec un tiret pour effectuer un zoom arrière, ou sur les flèches vertes pour les cartes adjacentes.


METAR-TAF: